Aérodrome :
LOGIN :

S'inscrire | Disclaimer

   EN    FR    IT 

 










Légende :    VFR   VFR Marginal   IFR   IFR Intensif   IFR Très Intensif
Visi : 
Plafond : 
>= 8 km
>= 3000ft
5 à 8 km
1000 à 3000 ft
1500m à 5 km
500 à 1000 ft
800 à 1500m
200 à 500 ft
< 800m
< 200 ft
Symboles :   Orages  Brouillard  Fortes neiges  Fortes précipitations  Vent > 20 kt
SIGMETs :   Divers  Orages  Givrage  Turbulence  Onde Orograph.  Cendres Volcan.







- Altitude de l'aérodrome : 0 ft
- Code IATA : QFR


LIRH - Frosinone Military

DERNIER METAR :
  • 191155Z 05006KT 9999 TS FEW035CB SCT040TCU 31/18 Q1015 RMK BKN MON CIME INC VAR RAPID VIS MIN 9999 WIND THR16 /////KT BLU

METARs EXPIRÉS :
  • 191055Z 06004KT 9999 FEW035CB SCT040TCU 29/18 Q1016
  • 190955Z 10003KT 9999 FEW035TCU 28/19 Q1016 RMK SCT MON LIB NC VIS MIN 9999 WIND THR16 /////KT BLU

TAF TAF LIRH
Valide du 19 à 12h jusqu'au 19 à 21h UTC


191100Z 1912/1921 20008KT 9999 SCT035
TEMPO 1913/1917 TS FEW030CB
Pas de NOTAMs connus pour ce terrain.
5 SIGMETs publiés pour la FIR Roma (LIRR) :
 
Annulation du SIGMET 4 
LIRR SIGMET 7 VALID 191049/191500 LIIB
LIRR ROMA FIR CNL SIGMET 4 191007/191500 NC=
Cendres volcaniques
LIRR SIGMET 6 VALID 191046/191600 LIIB
LIRR ROMA FIR VA ERUPTION MT ETNA PSN N3744 E01500 VA CLD OBS AT 1000Z WI N3730 E01449 - N3804 E01445 - N3804 E01525 - N3730 E01525 - N3730 E01449 MOV SE 15KT SFC/FL120 NC=
Annulation du SIGMET 2 
LIRR SIGMET 5 VALID 191006/191500 LIIB
LIRR ROMA FIR CNL SIGMET 2 190955/191500 NC=
Cendres volcaniques
LIRR SIGMET 4 VALID 191007/191500 LIIB
LIRR ROMA FIR VA ERUPTION MT ETNA PSN N3744 E01500 VA CLD OBS AT 0900Z WI N3700 E01525 - N3730 E01434 - N3815 E01449 - N3749 E01555 - N3700 E01525 MOV SE 20KT SFC/FL120 NC=
SIGMET 2  ANNULÉ :
Cendres volcaniques
LIRR SIGMET 2 VALID 190955/191500 LIIB
LIRR ROMA FIR VA ERUPTION MT ETNA PSN N3744 E01500 SFC/FL120=



MET'MAP, la Météo Aéronautique d'un coup d'oeil ! - Copyright ORBIFLY Décembre 2007 - Disclaimer

ORBIFLY MET'MAP TEAM :

Programmation & Développement : Alexandra Zaïnal
Conception & Développement : Baudouin d'Aumeries
Co-Programmation & Développement : Marc-Olivier Méhu
Soutien technique & logistique : Manuel Goepfert

Contact : metmap@orbifly.com




SOURCES & CREDITS :

   NOAA